Time;durP1;ratioP1;P1;durP2;ratioP2;P2;SDS_P1;SDS_P2;PMS_P1;PMS_P2;Temp;Humidity;BMP_temperature;BMP_pressure;BME280_temperature;BME280_humidity;BME280_pressure;Samples;Min_cycle;Max_cycle;Signal;HPM_P1;HPM_P2
2023/04/10 00:02:23;;;;;;;13.05;10.05;;;;;;;5.02;39.62;96111.09;5013912;28;20075;-65
2023/04/10 00:04:48;;;;;;;24.95;19.42;;;;;;;5.06;40.49;96110.75;5016539;28;20068;-66
2023/04/10 00:07:14;;;;;;;20.80;13.90;;;;;;;5.11;39.94;96105.09;5015974;28;20514;-65
2023/04/10 00:09:40;;;;;;;21.88;15.93;;;;;;;5.07;40.80;96111.59;5015882;28;20119;-65
2023/04/10 00:12:06;;;;;;;18.88;14.10;;;;;;;5.10;40.39;96108.66;5016425;28;20091;-65
2023/04/10 00:14:31;;;;;;;12.63;8.63;;;;;;;5.13;38.68;96116.34;5015781;28;20064;-65
2023/04/10 00:16:57;;;;;;;20.15;15.60;;;;;;;5.04;41.44;96104.72;5018053;28;20033;-65
2023/04/10 00:19:22;;;;;;;19.35;13.68;;;;;;;4.96;41.39;96104.53;5017952;28;20059;-65
2023/04/10 00:21:48;;;;;;;23.15;16.80;;;;;;;4.88;41.36;96107.00;5013343;28;20047;-64
2023/04/10 00:24:13;;;;;;;22.13;16.60;;;;;;;4.79;41.96;96111.25;5017387;28;20048;-65
2023/04/10 00:26:39;;;;;;;20.90;15.63;;;;;;;4.74;42.52;96108.16;5015876;28;20041;-65
2023/04/10 00:29:05;;;;;;;13.00;9.95;;;;;;;4.55;41.15;96104.41;5018143;28;20568;-65
2023/04/10 00:31:30;;;;;;;22.48;16.88;;;;;;;4.58;42.22;96109.44;5016419;28;20029;-65
2023/04/10 00:33:56;;;;;;;14.80;11.05;;;;;;;4.50;41.69;96101.34;5015931;28;20096;-65
2023/04/10 00:36:22;;;;;;;19.48;14.70;;;;;;;4.47;42.35;96094.53;5016683;28;20052;-65
2023/04/10 00:38:48;;;;;;;14.88;11.13;;;;;;;4.43;42.03;96093.94;5016110;28;20044;-65
2023/04/10 00:41:14;;;;;;;20.30;14.93;;;;;;;4.39;42.32;96089.06;5018712;28;20568;-65
2023/04/10 00:43:39;;;;;;;20.38;15.73;;;;;;;4.35;42.38;96080.56;5020546;28;20045;-65
2023/04/10 00:46:06;;;;;;;23.58;18.40;;;;;;;4.29;42.88;96083.72;5021596;28;20063;-65
2023/04/10 00:48:31;;;;;;;21.15;14.95;;;;;;;4.27;41.96;96080.34;5019063;28;20488;-65
2023/04/10 00:50:57;;;;;;;28.00;20.40;;;;;;;4.29;42.67;96076.63;5014359;28;20057;-65
2023/04/10 00:53:22;;;;;;;20.70;15.25;;;;;;;4.31;42.88;96073.88;5019783;28;20043;-65
2023/04/10 00:55:48;;;;;;;22.15;16.58;;;;;;;4.30;41.71;96072.19;5021778;28;20041;-65
2023/04/10 00:58:13;;;;;;;24.45;17.95;;;;;;;4.36;42.32;96079.63;5018144;28;20041;-65
2023/04/10 01:00:42;;;;;;;18.38;12.73;;;;;;;4.40;41.81;96080.19;5020184;28;20036;-64
2023/04/10 01:03:08;;;;;;;23.08;17.65;;;;;;;4.39;43.12;96076.69;5044459;22;21266;-65
2023/04/10 01:05:51;;;;;;;19.50;13.43;;;;;;;4.37;41.32;96065.47;5017319;28;20100;-63
2023/04/10 01:08:35;;;;;;;17.52;12.65;;;;;;;4.39;41.58;96063.50;5020761;28;20061;-63
2023/04/10 01:11:06;;;;;;;16.85;11.45;;;;;;;4.50;40.49;96059.16;5020089;28;20077;-63
2023/04/10 01:13:36;;;;;;;11.57;9.13;;;;;;;4.54;39.89;96052.66;5019943;28;20521;-63
2023/04/10 01:16:12;;;;;;;10.30;7.88;;;;;;;4.63;39.26;96054.50;5016579;28;20040;-63
2023/04/10 01:18:41;;;;;;;24.52;17.73;;;;;;;4.33;41.14;96056.94;5021928;28;20426;-62
2023/04/10 01:21:08;;;;;;;20.92;15.70;;;;;;;4.63;40.75;96051.06;5017803;28;20036;-63
2023/04/10 01:23:45;;;;;;;13.05;9.90;;;;;;;4.71;40.19;96044.16;5022944;28;20072;-62
2023/04/10 01:26:11;;;;;;;11.82;9.02;;;;;;;4.76;39.46;96042.94;5023446;28;20094;-63
2023/04/10 01:29:06;;;;;;;10.43;7.45;;;;;;;4.73;39.59;96049.28;5022188;28;20029;-63
2023/04/10 01:31:38;;;;;;;10.35;7.00;;;;;;;4.77;38.85;96049.88;5020678;28;20075;-63
2023/04/10 01:34:06;;;;;;;10.77;7.55;;;;;;;4.87;38.93;96044.66;5039771;28;20072;-62
2023/04/10 01:36:37;;;;;;;18.98;14.30;;;;;;;4.86;39.41;96050.91;5020742;28;20037;-63
2023/04/10 01:39:03;;;;;;;11.95;8.65;;;;;;;4.81;39.06;96044.22;5018113;28;20076;-62
2023/04/10 01:41:28;;;;;;;12.77;9.70;;;;;;;4.96;38.19;96039.41;5002872;28;20054;-63
2023/04/10 01:43:54;;;;;;;12.30;9.07;;;;;;;4.86;38.41;96038.53;5020674;28;20457;-63
2023/04/10 01:46:19;;;;;;;9.68;6.78;;;;;;;4.99;38.61;96032.22;5019384;28;20053;-62
2023/04/10 01:48:45;;;;;;;20.45;15.82;;;;;;;4.87;39.67;96045.50;5021532;28;20055;-62
2023/04/10 01:51:11;;;;;;;9.40;7.00;;;;;;;5.08;38.01;96034.06;5003044;28;20065;-63
2023/04/10 01:53:36;;;;;;;11.40;8.38;;;;;;;5.11;37.95;96041.75;5016711;28;20715;-63
2023/04/10 01:56:02;;;;;;;12.68;9.27;;;;;;;4.94;39.15;96041.34;5019709;28;20033;-63
2023/04/10 01:58:27;;;;;;;21.77;15.70;;;;;;;4.80;38.91;96039.88;5019405;28;20083;-63
2023/04/10 02:00:53;;;;;;;12.30;8.00;;;;;;;4.93;38.89;96029.13;5018651;28;20048;-62
2023/04/10 02:03:18;;;;;;;20.92;15.10;;;;;;;5.09;38.81;96035.75;5023689;28;20083;-63
2023/04/10 02:06:02;;;;;;;13.45;9.32;;;;;;;5.14;38.31;96025.59;5024247;28;20071;-62
2023/04/10 02:08:34;;;;;;;18.23;12.23;;;;;;;5.05;38.29;96029.88;5024474;28;20033;-63
2023/04/10 02:11:11;;;;;;;12.32;8.73;;;;;;;5.14;38.40;96027.44;5026046;28;20080;-62
2023/04/10 02:13:36;;;;;;;11.52;9.07;;;;;;;5.14;38.47;96028.25;5024464;28;21821;-62
2023/04/10 02:16:03;;;;;;;14.15;9.63;;;;;;;5.07;38.41;96027.94;5028822;28;20097;-63
2023/04/10 02:18:29;;;;;;;11.75;7.93;;;;;;;5.15;38.39;96027.31;5007698;28;20067;-63
2023/04/10 02:20:55;;;;;;;11.77;8.18;;;;;;;5.17;38.42;96030.63;5023147;28;20041;-63
2023/04/10 02:23:20;;;;;;;12.90;8.70;;;;;;;5.17;38.98;96027.16;5029562;28;20076;-63
2023/04/10 02:25:46;;;;;;;10.15;7.22;;;;;;;5.16;39.03;96021.03;5023310;28;20033;-62
2023/04/10 02:28:11;;;;;;;14.45;10.75;;;;;;;5.16;39.23;96018.41;5030640;28;20041;-63
2023/04/10 02:30:38;;;;;;;14.20;9.50;;;;;;;5.20;38.03;96011.03;5030261;28;20068;-62
2023/04/10 02:33:03;;;;;;;11.82;9.05;;;;;;;5.19;38.32;96006.75;5026232;28;20044;-62
2023/04/10 02:35:29;;;;;;;10.20;7.10;;;;;;;5.36;37.74;95999.97;5027449;28;20564;-62
2023/04/10 02:37:54;;;;;;;8.38;6.07;;;;;;;5.35;37.95;95993.03;5029406;28;20079;-62
2023/04/10 02:40:20;;;;;;;11.02;8.20;;;;;;;5.31;37.65;95989.00;5027316;28;20048;-63
2023/04/10 02:42:46;;;;;;;13.18;9.85;;;;;;;5.26;38.22;95994.69;5026238;28;20145;-63
2023/04/10 02:45:11;;;;;;;25.42;17.05;;;;;;;5.06;39.22;95999.06;5028152;28;20067;-63
2023/04/10 02:47:37;;;;;;;13.60;10.27;;;;;;;5.20;38.47;95989.91;5025545;28;20088;-63
2023/04/10 02:50:02;;;;;;;19.77;15.07;;;;;;;5.01;39.25;95990.69;5024395;28;20055;-63
2023/04/10 02:52:28;;;;;;;19.95;14.45;;;;;;;5.02;39.85;95989.69;5023536;28;20449;-63
2023/04/10 02:54:53;;;;;;;12.65;9.43;;;;;;;4.95;39.29;95984.97;5024319;28;20146;-63
2023/04/10 02:57:18;;;;;;;16.83;12.57;;;;;;;5.07;38.60;95977.00;5025738;28;20042;-63
2023/04/10 02:59:44;;;;;;;20.88;14.75;;;;;;;5.22;37.93;95975.66;5029142;28;20044;-63
2023/04/10 03:02:10;;;;;;;12.40;9.10;;;;;;;5.20;38.11;95971.44;5022200;28;20395;-62
2023/04/10 03:04:35;;;;;;;14.73;11.23;;;;;;;5.15;38.27;95963.09;5025124;28;20080;-63
2023/04/10 03:07:01;;;;;;;21.75;15.50;;;;;;;4.89;39.55;95964.38;5023471;28;20033;-63
2023/04/10 03:09:26;;;;;;;11.48;7.53;;;;;;;4.64;39.64;95963.88;5022873;28;20037;-63
2023/04/10 03:11:54;;;;;;;10.63;7.85;;;;;;;4.76;39.16;95963.78;5022430;28;20024;-63
2023/04/10 03:14:20;;;;;;;23.88;13.82;;;;;;;4.54;40.71;95965.63;5024185;28;20068;-63
2023/04/10 03:16:46;;;;;;;15.40;9.95;;;;;;;4.81;40.27;95962.44;5025138;28;20048;-63
2023/04/10 03:19:12;;;;;;;20.02;12.00;;;;;;;4.84;39.03;95956.06;5026337;28;20354;-64
2023/04/10 03:21:37;;;;;;;11.77;8.43;;;;;;;4.87;39.33;95963.72;5028214;28;21624;-63
2023/04/10 03:24:03;;;;;;;13.77;9.65;;;;;;;4.98;39.01;95954.84;5021960;28;20256;-63
2023/04/10 03:26:28;;;;;;;11.25;7.05;;;;;;;4.89;38.89;95958.25;5023076;28;20672;-63
2023/04/10 03:28:54;;;;;;;12.40;8.90;;;;;;;4.84;39.45;95954.22;5023445;28;20033;-63
2023/04/10 03:31:19;;;;;;;26.25;19.15;;;;;;;4.70;41.45;95954.59;5023015;28;20041;-63
2023/04/10 03:33:45;;;;;;;9.63;7.45;;;;;;;4.75;39.91;95954.19;5023160;28;20378;-63
2023/04/10 03:36:10;;;;;;;23.52;17.25;;;;;;;4.47;41.33;95956.56;5026727;28;20330;-63
2023/04/10 03:38:36;;;;;;;23.17;15.90;;;;;;;4.33;41.58;95954.13;5025393;28;20073;-63
2023/04/10 03:41:01;;;;;;;9.85;7.20;;;;;;;4.59;40.51;95958.16;5026208;28;20048;-63
2023/04/10 03:43:28;;;;;;;12.02;8.63;;;;;;;4.53;40.65;95961.34;5028661;28;20060;-63
2023/04/10 03:45:54;;;;;;;16.73;11.68;;;;;;;4.56;40.32;95955.81;5030785;28;20060;-63
2023/04/10 03:48:19;;;;;;;15.80;11.02;;;;;;;4.78;39.67;95956.56;5030516;28;20415;-63
2023/04/10 03:50:45;;;;;;;12.95;9.60;;;;;;;4.74;39.73;95965.72;5024675;28;20521;-63
2023/04/10 03:53:10;;;;;;;16.15;10.43;;;;;;;4.61;40.21;95964.16;5023241;28;20037;-63
2023/04/10 03:55:37;;;;;;;15.80;10.35;;;;;;;4.92;39.49;95953.56;5023939;28;20056;-63
2023/04/10 03:58:03;;;;;;;16.17;12.15;;;;;;;4.82;40.20;95952.69;5024421;28;20077;-63
2023/04/10 04:00:28;;;;;;;16.95;12.40;;;;;;;4.67;40.49;95952.22;5020881;28;20474;-63
2023/04/10 04:02:54;;;;;;;20.52;14.27;;;;;;;4.81;40.84;95953.66;5022589;28;20086;-63
2023/04/10 04:05:19;;;;;;;23.30;17.27;;;;;;;4.32;42.96;95957.75;5021345;28;20040;-63
2023/04/10 04:07:45;;;;;;;17.55;13.02;;;;;;;4.62;41.54;95949.16;5032180;28;20048;-63
2023/04/10 04:10:10;;;;;;;15.35;11.35;;;;;;;4.37;41.04;95952.09;5022337;28;20053;-63
2023/04/10 04:12:35;;;;;;;17.40;11.50;;;;;;;4.63;40.57;95949.00;5021728;28;20041;-63
2023/04/10 04:15:01;;;;;;;12.30;8.75;;;;;;;4.50;41.26;95953.69;5025552;28;20449;-63
2023/04/10 04:17:26;;;;;;;13.10;9.10;;;;;;;4.83;40.38;95949.09;5025825;28;20045;-63
2023/04/10 04:19:52;;;;;;;23.08;15.15;;;;;;;4.65;41.02;95947.09;5021632;28;20089;-63
2023/04/10 04:22:17;;;;;;;21.05;13.82;;;;;;;4.60;41.00;95944.03;5021594;28;20151;-63
2023/04/10 04:24:43;;;;;;;18.27;12.93;;;;;;;4.40;42.11;95946.56;5040716;28;20032;-63
2023/04/10 04:27:08;;;;;;;11.68;8.55;;;;;;;4.78;39.71;95932.81;5026496;28;20071;-63
2023/04/10 04:29:33;;;;;;;12.57;8.40;;;;;;;4.94;39.55;95940.25;5032510;28;20040;-63
2023/04/10 04:31:59;;;;;;;9.02;6.70;;;;;;;4.97;39.45;95946.06;5031369;28;20489;-63
2023/04/10 04:34:24;;;;;;;11.23;7.32;;;;;;;5.01;39.76;95940.53;5024901;28;20085;-63
2023/04/10 04:36:50;;;;;;;9.45;7.00;;;;;;;5.21;38.97;95934.34;5031303;28;20036;-63
2023/04/10 04:39:15;;;;;;;9.50;6.72;;;;;;;5.28;38.39;95932.03;5029680;28;20033;-63
2023/04/10 04:41:41;;;;;;;12.38;9.23;;;;;;;5.17;38.97;95940.88;5029556;28;20083;-63
2023/04/10 04:44:06;;;;;;;14.48;9.23;;;;;;;5.06;39.14;95944.47;5027182;28;20045;-63
2023/04/10 04:46:32;;;;;;;15.15;10.13;;;;;;;5.06;39.17;95943.63;5027740;28;20067;-62
2023/04/10 04:48:57;;;;;;;9.30;6.53;;;;;;;5.07;39.10;95945.31;5025397;28;20345;-63
2023/04/10 04:51:22;;;;;;;9.27;6.80;;;;;;;5.16;38.33;95947.13;5027442;28;20114;-63
2023/04/10 04:53:48;;;;;;;11.73;8.40;;;;;;;4.89;39.99;95947.72;5026935;28;20071;-63
2023/04/10 04:56:14;;;;;;;8.82;6.50;;;;;;;4.95;39.04;95940.13;5025250;28;20049;-63
2023/04/10 04:58:39;;;;;;;13.07;9.98;;;;;;;4.63;41.17;95942.91;5026247;28;20467;-63
2023/04/10 05:01:05;;;;;;;11.88;9.52;;;;;;;4.48;40.13;95942.41;5028074;28;20539;-63
2023/04/10 05:03:31;;;;;;;17.38;13.60;;;;;;;4.45;42.53;95935.59;5022936;28;20083;-63
2023/04/10 05:05:56;;;;;;;17.27;12.50;;;;;;;4.31;43.48;95940.28;5026290;28;20065;-63
2023/04/10 05:08:22;;;;;;;14.10;10.27;;;;;;;4.43;42.57;95925.19;5027928;28;20512;-63
2023/04/10 05:10:47;;;;;;;10.40;7.75;;;;;;;4.24;41.93;95928.56;5027109;28;20131;-63
2023/04/10 05:13:14;;;;;;;14.90;11.18;;;;;;;4.27;42.05;95927.47;5026044;28;20551;-63
2023/04/10 05:15:39;;;;;;;12.55;9.35;;;;;;;4.35;41.47;95922.38;5024919;28;20111;-63
2023/04/10 05:18:05;;;;;;;7.10;5.75;;;;;;;5.06;39.16;95911.97;5022771;28;20071;-62
2023/04/10 05:20:30;;;;;;;10.10;7.18;;;;;;;5.01;38.83;95920.28;5026857;28;20059;-62
2023/04/10 05:22:57;;;;;;;15.65;9.52;;;;;;;4.63;41.56;95927.09;5023242;28;20072;-62
2023/04/10 05:25:22;;;;;;;8.52;6.28;;;;;;;5.03;38.73;95928.06;5025199;28;20114;-62
2023/04/10 05:27:47;;;;;;;9.90;6.65;;;;;;;5.19;38.78;95927.53;5024723;28;20074;-63
2023/04/10 05:30:13;;;;;;;11.52;7.50;;;;;;;5.19;38.65;95920.47;5028251;28;20075;-63
2023/04/10 05:32:38;;;;;;;7.63;5.63;;;;;;;5.28;38.72;95923.25;5026506;28;20271;-63
2023/04/10 05:35:04;;;;;;;12.30;8.25;;;;;;;5.07;38.82;95921.56;5035565;28;20043;-63
2023/04/10 05:37:30;;;;;;;12.73;9.35;;;;;;;4.70;41.07;95933.50;5029403;28;20051;-63
2023/04/10 05:39:55;;;;;;;10.52;7.07;;;;;;;5.02;38.77;95929.00;5028454;28;20036;-63
2023/04/10 05:42:20;;;;;;;10.25;7.72;;;;;;;4.57;39.95;95929.31;5028753;28;20038;-63
2023/04/10 05:44:46;;;;;;;10.32;7.50;;;;;;;5.08;38.58;95931.16;5035180;28;20033;-63
2023/04/10 05:47:11;;;;;;;13.20;9.02;;;;;;;4.83;40.41;95930.66;5027629;28;20409;-63
2023/04/10 05:49:36;;;;;;;8.20;5.95;;;;;;;4.90;38.53;95931.75;5029494;28;20045;-63
2023/04/10 05:52:02;;;;;;;8.63;6.30;;;;;;;5.26;38.29;95927.81;5030619;28;20040;-63
2023/04/10 05:54:27;;;;;;;9.18;6.20;;;;;;;5.74;37.75;95923.53;5027555;28;20465;-63
2023/04/10 05:56:53;;;;;;;8.25;5.97;;;;;;;5.38;38.34;95920.63;5031140;28;20087;-63
2023/04/10 05:59:18;;;;;;;9.35;6.53;;;;;;;5.59;38.80;95928.44;5026991;28;20486;-62
2023/04/10 06:01:45;;;;;;;11.77;8.70;;;;;;;5.25;39.97;95934.09;5026075;28;20049;-63
2023/04/10 06:04:10;;;;;;;7.85;5.55;;;;;;;5.60;37.75;95930.94;5027009;28;20576;-63
2023/04/10 06:06:36;;;;;;;7.72;5.63;;;;;;;5.66;37.36;95944.56;5026306;28;20067;-63
2023/04/10 06:09:01;;;;;;;11.27;7.78;;;;;;;5.44;38.62;95944.69;5028060;28;20040;-62
2023/04/10 06:11:26;;;;;;;9.45;7.05;;;;;;;5.74;37.16;95940.25;5027106;28;20090;-63
2023/04/10 06:13:52;;;;;;;8.25;6.20;;;;;;;5.82;36.86;95944.00;5027037;28;20064;-63
2023/04/10 06:16:17;;;;;;;9.00;6.13;;;;;;;6.11;36.49;95938.69;5027935;28;20033;-62
2023/04/10 06:18:43;;;;;;;9.88;7.60;;;;;;;6.32;37.37;95936.84;5027737;28;20052;-63
2023/04/10 06:21:08;;;;;;;6.72;5.35;;;;;;;6.25;35.79;95928.63;5027722;28;20486;-62
2023/04/10 06:23:34;;;;;;;9.07;6.65;;;;;;;6.41;36.11;95938.63;5025419;28;20033;-63
2023/04/10 06:26:00;;;;;;;8.23;5.72;;;;;;;6.56;35.84;95930.25;5030995;28;20572;-63
2023/04/10 06:28:25;;;;;;;7.32;5.40;;;;;;;6.89;35.49;95941.25;5031079;28;20032;-63
2023/04/10 06:30:51;;;;;;;9.00;6.18;;;;;;;6.63;35.41;95933.97;5031570;28;20048;-63
2023/04/10 06:33:16;;;;;;;8.30;6.18;;;;;;;6.79;35.42;95929.84;5028661;28;20535;-63
2023/04/10 06:35:42;;;;;;;8.55;5.80;;;;;;;6.71;35.17;95926.16;5025368;28;20025;-63
2023/04/10 06:38:07;;;;;;;9.55;7.22;;;;;;;6.79;35.73;95919.28;5027046;28;20486;-63
2023/04/10 06:40:33;;;;;;;8.95;6.63;;;;;;;6.98;34.93;95923.66;5028726;28;20034;-63
2023/04/10 06:42:59;;;;;;;8.07;6.15;;;;;;;7.33;34.54;95926.50;5034566;28;20041;-63
2023/04/10 06:45:24;;;;;;;9.35;6.03;;;;;;;7.29;34.20;95925.97;5031034;28;20029;-63
2023/04/10 06:47:50;;;;;;;8.60;6.25;;;;;;;7.39;34.42;95924.06;5026731;28;20051;-63
2023/04/10 06:50:15;;;;;;;7.10;5.75;;;;;;;7.41;34.04;95924.78;5023450;28;20049;-63
2023/04/10 06:52:41;;;;;;;9.52;6.25;;;;;;;7.46;34.05;95928.78;5026413;28;20469;-63
2023/04/10 06:55:06;;;;;;;10.25;7.32;;;;;;;7.63;35.21;95925.31;5032273;28;20671;-63
2023/04/10 06:57:32;;;;;;;9.85;6.97;;;;;;;7.40;35.38;95923.13;5033808;28;20024;-63
2023/04/10 06:59:57;;;;;;;9.52;6.65;;;;;;;7.54;35.09;95924.41;5024799;28;20033;-63
2023/04/10 07:02:23;;;;;;;8.02;6.25;;;;;;;7.45;33.90;95917.34;5024211;28;20118;-63
2023/04/10 07:04:49;;;;;;;7.03;5.20;;;;;;;7.84;33.37;95921.53;5024798;28;20476;-63
2023/04/10 07:07:14;;;;;;;8.38;6.38;;;;;;;7.90;34.54;95917.44;5024430;28;20041;-63
2023/04/10 07:09:40;;;;;;;8.27;6.32;;;;;;;7.83;33.10;95927.00;5023116;28;20393;-63
2023/04/10 07:12:05;;;;;;;9.13;5.68;;;;;;;7.87;33.28;95921.25;5021747;28;20130;-63
2023/04/10 07:14:31;;;;;;;9.15;6.03;;;;;;;8.09;33.44;95920.91;5024461;28;20052;-63
2023/04/10 07:16:57;;;;;;;7.10;5.28;;;;;;;8.09;32.82;95920.91;5022718;28;20351;-63
2023/04/10 07:19:22;;;;;;;7.45;5.32;;;;;;;8.22;32.97;95926.63;5021792;28;20034;-63
2023/04/10 07:21:50;;;;;;;9.30;6.05;;;;;;;8.11;32.96;95918.91;5021688;28;20568;-63
2023/04/10 07:24:16;;;;;;;11.45;6.60;;;;;;;8.15;33.22;95915.81;5023767;28;20037;-63
2023/04/10 07:26:43;;;;;;;7.47;5.35;;;;;;;8.56;32.13;95912.56;5030768;28;20414;-63
2023/04/10 07:29:08;;;;;;;8.15;6.30;;;;;;;7.78;32.18;95924.78;5034182;28;20539;-63
2023/04/10 07:31:34;;;;;;;7.30;5.28;;;;;;;8.68;32.08;95914.94;5030331;28;20033;-63
2023/04/10 07:34:01;;;;;;;8.10;6.10;;;;;;;8.54;32.82;95913.72;5022858;28;20256;-63
2023/04/10 07:36:26;;;;;;;9.70;6.75;;;;;;;8.63;32.80;95915.41;5029256;28;20041;-63
2023/04/10 07:38:52;;;;;;;6.95;5.18;;;;;;;9.45;30.69;95907.91;5028551;28;20045;-63
2023/04/10 07:41:17;;;;;;;8.23;6.00;;;;;;;8.56;32.84;95909.91;5027103;28;20055;-63
2023/04/10 07:43:42;;;;;;;7.10;5.25;;;;;;;9.34;31.13;95906.41;5023161;28;20037;-63
2023/04/10 07:46:08;;;;;;;9.38;6.95;;;;;;;9.28;31.23;95912.38;5023710;28;20041;-63
2023/04/10 07:48:33;;;;;;;8.65;6.28;;;;;;;9.22;31.34;95905.88;5025331;28;20363;-63
2023/04/10 07:50:59;;;;;;;9.85;6.20;;;;;;;9.46;30.72;95907.75;5025212;28;20038;-63
2023/04/10 07:53:25;;;;;;;6.25;5.00;;;;;;;9.68;30.60;95904.59;5024056;28;20037;-63
2023/04/10 07:55:50;;;;;;;8.60;5.93;;;;;;;9.74;31.51;95903.13;5024244;28;20467;-63
2023/04/10 07:58:15;;;;;;;7.43;5.70;;;;;;;9.71;30.66;95901.63;5023854;28;20038;-63
2023/04/10 08:00:41;;;;;;;8.38;6.55;;;;;;;9.76;30.70;95903.78;5024264;28;20034;-63
2023/04/10 08:03:06;;;;;;;8.75;6.63;;;;;;;9.95;31.31;95899.97;5026017;28;20057;-63
2023/04/10 08:05:32;;;;;;;6.82;5.10;;;;;;;10.25;29.68;95889.66;5023087;28;20580;-63
2023/04/10 08:07:58;;;;;;;6.93;5.18;;;;;;;9.78;30.46;95899.97;5023728;28;20040;-63
2023/04/10 08:10:23;;;;;;;7.65;5.40;;;;;;;10.35;30.06;95892.13;5022417;28;20116;-64
2023/04/10 08:12:49;;;;;;;6.60;4.70;;;;;;;10.60;28.86;95894.72;5023410;28;20045;-63
2023/04/10 08:15:14;;;;;;;7.28;5.65;;;;;;;10.67;29.56;95889.56;5025904;28;20049;-63
2023/04/10 08:17:39;;;;;;;8.18;5.72;;;;;;;10.87;28.79;95893.47;5022586;28;20032;-63
2023/04/10 08:20:06;;;;;;;10.63;7.85;;;;;;;10.97;28.22;95897.75;5023181;28;20037;-63
2023/04/10 08:22:31;;;;;;;6.18;4.93;;;;;;;10.92;28.23;95890.28;5022736;28;20458;-64
2023/04/10 08:24:56;;;;;;;6.22;4.80;;;;;;;11.00;29.59;95887.59;5022941;28;20044;-63
2023/04/10 08:27:22;;;;;;;6.18;5.00;;;;;;;11.48;28.66;95888.50;5023571;28;20041;-63
2023/04/10 08:29:47;;;;;;;6.75;5.28;;;;;;;11.63;28.05;95877.91;5022035;28;20034;-63
2023/04/10 08:32:13;;;;;;;5.75;4.57;;;;;;;11.48;27.79;95877.81;5027324;28;20393;-64
2023/04/10 08:34:38;;;;;;;6.47;4.90;;;;;;;11.54;27.12;95876.28;5022154;28;20045;-63
2023/04/10 08:37:08;;;;;;;6.20;4.80;;;;;;;11.98;27.39;95867.59;5021903;28;20631;-63
2023/04/10 08:39:37;;;;;;;6.47;5.18;;;;;;;11.65;28.06;95875.88;5021758;28;20064;-64
2023/04/10 08:42:02;;;;;;;5.88;4.70;;;;;;;12.24;26.91;95866.38;5021301;28;20048;-63
2023/04/10 08:44:28;;;;;;;7.80;5.13;;;;;;;11.89;27.21;95869.50;5023288;28;20296;-63
2023/04/10 08:46:53;;;;;;;19.90;10.45;;;;;;;12.03;27.63;95865.22;5034624;28;20118;-63
2023/04/10 08:49:46;;;;;;;8.32;5.40;;;;;;;12.51;26.56;95855.28;5033179;28;20037;-63
2023/04/10 08:52:17;;;;;;;11.68;6.90;;;;;;;12.62;27.00;95854.78;5027774;28;20072;-63
2023/04/10 08:54:46;;;;;;;10.27;6.30;;;;;;;12.96;26.45;95859.72;5020915;28;20674;-63
2023/04/10 08:57:16;;;;;;;9.63;6.05;;;;;;;12.78;26.69;95860.94;5018126;28;20112;-63
2023/04/10 08:59:41;;;;;;;15.95;8.23;;;;;;;12.63;26.70;95868.97;5020569;28;20042;-64
2023/04/10 09:02:07;;;;;;;14.70;8.15;;;;;;;12.76;26.35;95852.28;5023801;28;20491;-64
2023/04/10 09:04:32;;;;;;;7.38;5.53;;;;;;;12.57;26.73;95851.84;5038520;28;20057;-64
2023/04/10 09:07:00;;;;;;;18.13;8.75;;;;;;;12.70;27.59;95853.88;5034180;28;20033;-63
2023/04/10 09:09:27;;;;;;;;;;;;;;;12.57;27.75;95841.16;5034889;28;20030;-63
2023/04/10 09:11:55;;;;;;;8.15;6.00;;;;;;;12.64;27.27;95843.91;5032152;28;19921;-63
2023/04/10 09:14:25;;;;;;;6.35;5.00;;;;;;;12.73;26.76;95845.47;5034116;28;20068;-63
2023/04/10 09:16:51;;;;;;;8.10;5.72;;;;;;;11.75;28.00;95846.28;5032340;28;20047;-64
2023/04/10 09:19:32;;;;;;;9.23;5.53;;;;;;;12.31;27.60;95845.13;5028720;28;20478;-62
2023/04/10 09:21:58;;;;;;;6.63;5.25;;;;;;;12.04;27.58;95842.03;5025571;28;20432;-63
2023/04/10 09:24:23;;;;;;;14.95;8.18;;;;;;;11.74;28.29;95845.47;5027924;28;20084;-63
2023/04/10 09:26:49;;;;;;;28.48;13.82;;;;;;;12.23;28.26;95840.69;5027360;28;20041;-63
2023/04/10 09:29:15;;;;;;;10.18;6.45;;;;;;;12.21;28.56;95840.03;5035154;28;20041;-63
2023/04/10 09:31:41;;;;;;;9.82;6.10;;;;;;;12.48;28.74;95834.28;5030188;28;20670;-63
2023/04/10 09:34:16;;;;;;;19.23;9.32;;;;;;;12.51;27.52;95834.72;5028342;28;20337;-63
2023/04/10 09:36:42;;;;;;;13.52;7.82;;;;;;;12.33;27.90;95837.75;5031057;28;20033;-63
2023/04/10 09:39:09;;;;;;;25.73;11.93;;;;;;;11.82;28.55;95833.06;5029557;28;20143;-63
2023/04/10 09:41:34;;;;;;;8.55;5.85;;;;;;;12.83;29.12;95820.31;5028080;28;20885;-64
2023/04/10 09:44:07;;;;;;;8.15;5.45;;;;;;;13.56;27.14;95824.78;5025815;28;20044;-63
2023/04/10 09:46:33;;;;;;;8.13;5.40;;;;;;;13.99;26.09;95815.91;5026298;28;20045;-63
2023/04/10 09:49:03;;;;;;;12.43;6.60;;;;;;;14.26;26.07;95815.25;5022255;28;20287;-63
2023/04/10 09:51:33;;;;;;;21.15;9.40;;;;;;;14.24;26.70;95811.97;5025127;28;20064;-63
2023/04/10 09:53:59;;;;;;;7.18;4.28;;;;;;;14.24;25.97;95814.63;5025603;28;20083;-63
2023/04/10 09:56:25;;;;;;;11.65;7.32;;;;;;;14.88;24.38;95809.19;5024413;28;20053;-63
2023/04/10 09:58:51;;;;;;;32.13;21.58;;;;;;;14.04;24.91;95794.72;5023965;28;20039;-64
2023/04/10 10:01:16;;;;;;;5.43;4.22;;;;;;;14.33;25.86;95787.50;5025852;28;20063;-64
2023/04/10 10:03:41;;;;;;;6.75;3.83;;;;;;;15.20;23.76;95788.84;5029735;28;20054;-65
2023/04/10 10:06:08;;;;;;;7.90;5.22;;;;;;;14.90;24.09;95781.19;5023546;28;20489;-63
2023/04/10 10:08:34;;;;;;;13.38;8.43;;;;;;;15.08;23.04;95777.91;5024073;28;20037;-64
2023/04/10 10:10:59;;;;;;;5.25;3.55;;;;;;;14.92;23.17;95779.09;5024701;28;20492;-63
2023/04/10 10:13:32;;;;;;;7.28;5.00;;;;;;;15.59;22.82;95782.94;5022572;28;20025;-63
2023/04/10 10:16:08;;;;;;;7.35;5.60;;;;;;;15.80;22.36;95767.66;5023499;28;20034;-63
2023/04/10 10:18:44;;;;;;;6.28;5.00;;;;;;;15.10;22.26;95772.34;5009820;28;20047;-64
2023/04/10 10:21:10;;;;;;;3.72;3.22;;;;;;;16.03;21.98;95761.84;5026020;28;20048;-64
2023/04/10 10:23:36;;;;;;;4.22;3.10;;;;;;;15.96;20.76;95772.63;5027760;28;20513;-62
2023/04/10 10:26:04;;;;;;;3.85;3.35;;;;;;;16.02;21.68;95754.00;5032494;28;20494;-62
2023/04/10 10:28:29;;;;;;;;;;;;;;;15.88;21.17;95762.91;5037694;28;20037;-63
2023/04/10 10:30:55;;;;;;;5.43;3.15;;;;;;;15.39;22.10;95761.44;5032440;28;19920;-62
2023/04/10 10:33:20;;;;;;;3.35;3.05;;;;;;;16.15;21.65;95759.38;5006031;28;20025;-63
2023/04/10 10:35:46;;;;;;;3.90;3.28;;;;;;;16.21;21.97;95741.56;5035469;28;20037;-62
2023/04/10 10:38:11;;;;;;;3.53;3.22;;;;;;;16.26;21.31;95753.31;5030318;28;20587;-62
2023/04/10 10:40:58;;;;;;;4.05;3.50;;;;;;;16.60;21.89;95742.50;5028245;28;20032;-62
2023/04/10 10:43:36;;;;;;;6.05;3.50;;;;;;;14.41;22.89;95742.84;5035304;28;20044;-62
2023/04/10 10:46:33;;;;;;;4.40;3.80;;;;;;;14.50;23.44;95736.28;5032568;28;20033;-62
2023/04/10 10:48:59;;;;;;;3.70;3.40;;;;;;;15.26;22.69;95727.41;5029701;28;20072;-61
2023/04/10 10:51:59;;;;;;;4.22;3.60;;;;;;;15.34;22.41;95714.59;5028594;28;20183;-63
2023/04/10 10:54:28;;;;;;;4.07;3.50;;;;;;;15.78;22.39;95722.25;4997621;28;20046;-64
2023/04/10 10:56:54;;;;;;;4.00;3.30;;;;;;;16.34;21.03;95729.94;5019572;28;20443;-63
2023/04/10 10:59:58;;;;;;;4.10;3.55;;;;;;;14.12;23.79;95737.56;5029343;28;20040;-64
2023/04/10 11:02:24;;;;;;;5.13;3.80;;;;;;;15.06;24.16;95731.69;5024233;28;20065;-63
2023/04/10 11:04:50;;;;;;;4.05;3.58;;;;;;;16.11;22.70;95737.47;5027084;28;20057;-64
2023/04/10 11:07:15;;;;;;;4.18;3.78;;;;;;;16.13;21.34;95734.56;5028445;28;20065;-63
2023/04/10 11:09:51;;;;;;;4.30;3.50;;;;;;;13.92;24.63;95727.56;5027468;28;20445;-64
2023/04/10 11:12:24;;;;;;;4.03;3.58;;;;;;;15.54;23.12;95721.81;5027853;28;20107;-63
2023/04/10 11:15:00;;;;;;;6.38;3.80;;;;;;;16.33;22.39;95728.31;5027432;28;20103;-63
2023/04/10 11:17:49;;;;;;;4.07;3.47;;;;;;;15.47;22.00;95726.38;5031998;28;20402;-63
2023/04/10 11:20:16;;;;;;;4.15;3.58;;;;;;;15.28;22.25;95722.66;5026140;28;20350;-64
2023/04/10 11:23:10;;;;;;;4.50;3.85;;;;;;;15.79;22.02;95701.59;5028511;28;20069;-64
2023/04/10 11:25:49;;;;;;;4.40;3.92;;;;;;;14.93;22.42;95715.63;5025487;28;20042;-63
2023/04/10 11:28:36;;;;;;;4.38;3.90;;;;;;;15.54;22.98;95711.09;5026880;28;20143;-63
2023/04/10 11:31:18;;;;;;;;;;;;;;;15.93;22.33;95699.72;5027720;28;20050;-63
2023/04/10 11:33:45;;;;;;;4.50;3.58;;;;;;;16.25;22.53;95692.59;5022617;28;19925;-63
2023/04/10 11:36:13;;;;;;;4.80;3.90;;;;;;;15.83;22.09;95686.72;5020918;28;20366;-64